sensor_id;sensor_type;location;lat;lon;timestamp;P1;durP1;ratioP1;P2;durP2;ratioP2
15624;SDS011;7912;51.376;6.126;2023-05-20T00:01:48;3.67;;;2.60;;
15624;SDS011;7912;51.376;6.126;2023-05-20T00:08:25;3.13;;;2.77;;
15624;SDS011;7912;51.376;6.126;2023-05-20T00:10:52;6.50;;;3.07;;
15624;SDS011;7912;51.376;6.126;2023-05-20T00:13:19;3.80;;;2.33;;
15624;SDS011;7912;51.376;6.126;2023-05-20T00:15:46;4.77;;;2.47;;
15624;SDS011;7912;51.376;6.126;2023-05-20T00:18:14;2.93;;;2.50;;
15624;SDS011;7912;51.376;6.126;2023-05-20T00:20:41;3.00;;;2.70;;
15624;SDS011;7912;51.376;6.126;2023-05-20T00:23:09;2.80;;;2.37;;
15624;SDS011;7912;51.376;6.126;2023-05-20T00:25:36;4.30;;;2.87;;
15624;SDS011;7912;51.376;6.126;2023-05-20T00:28:04;2.93;;;2.67;;
15624;SDS011;7912;51.376;6.126;2023-05-20T00:30:32;2.97;;;2.40;;
15624;SDS011;7912;51.376;6.126;2023-05-20T00:32:59;4.97;;;3.07;;
15624;SDS011;7912;51.376;6.126;2023-05-20T00:35:27;3.03;;;2.63;;
15624;SDS011;7912;51.376;6.126;2023-05-20T00:37:54;4.10;;;2.53;;
15624;SDS011;7912;51.376;6.126;2023-05-20T00:40:21;3.90;;;2.37;;
15624;SDS011;7912;51.376;6.126;2023-05-20T00:42:50;3.67;;;2.97;;
15624;SDS011;7912;51.376;6.126;2023-05-20T00:45:17;3.20;;;2.90;;
15624;SDS011;7912;51.376;6.126;2023-05-20T00:47:44;5.13;;;2.80;;
15624;SDS011;7912;51.376;6.126;2023-05-20T00:50:13;3.60;;;2.80;;
15624;SDS011;7912;51.376;6.126;2023-05-20T00:52:42;4.83;;;2.80;;
15624;SDS011;7912;51.376;6.126;2023-05-20T00:55:12;3.57;;;3.07;;
15624;SDS011;7912;51.376;6.126;2023-05-20T00:57:39;3.03;;;2.70;;
15624;SDS011;7912;51.376;6.126;2023-05-20T01:00:07;3.23;;;2.93;;
15624;SDS011;7912;51.376;6.126;2023-05-20T01:02:36;3.27;;;2.77;;
15624;SDS011;7912;51.376;6.126;2023-05-20T01:05:04;4.73;;;2.77;;
15624;SDS011;7912;51.376;6.126;2023-05-20T01:07:32;4.57;;;2.37;;
15624;SDS011;7912;51.376;6.126;2023-05-20T01:09:59;2.83;;;2.33;;
15624;SDS011;7912;51.376;6.126;2023-05-20T01:12:28;3.03;;;2.70;;
15624;SDS011;7912;51.376;6.126;2023-05-20T01:15:26;3.07;;;2.70;;
15624;SDS011;7912;51.376;6.126;2023-05-20T01:18:00;4.13;;;2.87;;
15624;SDS011;7912;51.376;6.126;2023-05-20T01:20:31;4.93;;;2.87;;
15624;SDS011;7912;51.376;6.126;2023-05-20T01:23:00;5.60;;;2.70;;
15624;SDS011;7912;51.376;6.126;2023-05-20T01:25:28;4.93;;;2.80;;
15624;SDS011;7912;51.376;6.126;2023-05-20T01:31:22;3.80;;;2.60;;
15624;SDS011;7912;51.376;6.126;2023-05-20T01:37:37;3.50;;;2.83;;
15624;SDS011;7912;51.376;6.126;2023-05-20T01:40:07;4.03;;;2.67;;
15624;SDS011;7912;51.376;6.126;2023-05-20T01:42:36;3.43;;;2.73;;
15624;SDS011;7912;51.376;6.126;2023-05-20T01:45:05;6.37;;;2.77;;
15624;SDS011;7912;51.376;6.126;2023-05-20T01:47:33;3.03;;;2.73;;
15624;SDS011;7912;51.376;6.126;2023-05-20T01:50:01;3.73;;;2.77;;
15624;SDS011;7912;51.376;6.126;2023-05-20T01:52:28;4.80;;;3.10;;
15624;SDS011;7912;51.376;6.126;2023-05-20T01:54:57;3.33;;;3.03;;
15624;SDS011;7912;51.376;6.126;2023-05-20T01:57:24;6.07;;;3.03;;
15624;SDS011;7912;51.376;6.126;2023-05-20T01:59:51;4.10;;;3.00;;
15624;SDS011;7912;51.376;6.126;2023-05-20T02:02:18;4.20;;;2.60;;
15624;SDS011;7912;51.376;6.126;2023-05-20T02:04:47;6.93;;;3.20;;
15624;SDS011;7912;51.376;6.126;2023-05-20T02:07:17;5.27;;;2.97;;
15624;SDS011;7912;51.376;6.126;2023-05-20T02:09:45;5.97;;;3.30;;
15624;SDS011;7912;51.376;6.126;2023-05-20T02:12:13;5.10;;;2.80;;
15624;SDS011;7912;51.376;6.126;2023-05-20T02:14:43;4.33;;;3.10;;
15624;SDS011;7912;51.376;6.126;2023-05-20T02:17:12;4.17;;;3.07;;
15624;SDS011;7912;51.376;6.126;2023-05-20T02:19:42;4.20;;;3.20;;
15624;SDS011;7912;51.376;6.126;2023-05-20T02:22:11;5.13;;;3.10;;
15624;SDS011;7912;51.376;6.126;2023-05-20T02:24:39;3.27;;;2.97;;
15624;SDS011;7912;51.376;6.126;2023-05-20T02:27:08;5.53;;;2.97;;
15624;SDS011;7912;51.376;6.126;2023-05-20T02:29:36;5.57;;;3.50;;
15624;SDS011;7912;51.376;6.126;2023-05-20T02:32:03;4.13;;;3.30;;
15624;SDS011;7912;51.376;6.126;2023-05-20T02:34:31;5.30;;;3.70;;
15624;SDS011;7912;51.376;6.126;2023-05-20T02:36:58;4.67;;;3.40;;
15624;SDS011;7912;51.376;6.126;2023-05-20T02:39:26;4.33;;;3.37;;
15624;SDS011;7912;51.376;6.126;2023-05-20T02:41:54;5.07;;;3.63;;
15624;SDS011;7912;51.376;6.126;2023-05-20T02:44:21;4.50;;;3.23;;
15624;SDS011;7912;51.376;6.126;2023-05-20T02:46:49;3.63;;;3.27;;
15624;SDS011;7912;51.376;6.126;2023-05-20T02:49:16;5.23;;;3.30;;
15624;SDS011;7912;51.376;6.126;2023-05-20T02:51:43;5.77;;;3.53;;
15624;SDS011;7912;51.376;6.126;2023-05-20T02:54:10;4.10;;;3.30;;
15624;SDS011;7912;51.376;6.126;2023-05-20T02:56:38;5.20;;;3.70;;
15624;SDS011;7912;51.376;6.126;2023-05-20T02:59:05;4.20;;;3.33;;
15624;SDS011;7912;51.376;6.126;2023-05-20T03:01:32;5.37;;;3.67;;
15624;SDS011;7912;51.376;6.126;2023-05-20T03:04:01;5.37;;;3.50;;
15624;SDS011;7912;51.376;6.126;2023-05-20T03:06:30;3.83;;;2.93;;
15624;SDS011;7912;51.376;6.126;2023-05-20T03:08:57;4.43;;;3.40;;
15624;SDS011;7912;51.376;6.126;2023-05-20T03:11:24;4.50;;;4.10;;
15624;SDS011;7912;51.376;6.126;2023-05-20T03:13:52;4.00;;;3.50;;
15624;SDS011;7912;51.376;6.126;2023-05-20T03:16:19;3.63;;;3.30;;
15624;SDS011;7912;51.376;6.126;2023-05-20T03:18:46;5.30;;;3.80;;
15624;SDS011;7912;51.376;6.126;2023-05-20T03:21:15;6.27;;;3.90;;
15624;SDS011;7912;51.376;6.126;2023-05-20T03:23:42;4.93;;;3.70;;
15624;SDS011;7912;51.376;6.126;2023-05-20T03:26:10;4.60;;;3.80;;
15624;SDS011;7912;51.376;6.126;2023-05-20T03:28:37;4.40;;;3.43;;
15624;SDS011;7912;51.376;6.126;2023-05-20T03:31:04;4.87;;;3.87;;
15624;SDS011;7912;51.376;6.126;2023-05-20T03:33:33;4.27;;;3.63;;
15624;SDS011;7912;51.376;6.126;2023-05-20T03:36:00;3.77;;;3.10;;
15624;SDS011;7912;51.376;6.126;2023-05-20T03:38:28;4.50;;;3.73;;
15624;SDS011;7912;51.376;6.126;2023-05-20T03:40:56;5.93;;;3.67;;
15624;SDS011;7912;51.376;6.126;2023-05-20T03:43:23;6.70;;;3.80;;
15624;SDS011;7912;51.376;6.126;2023-05-20T03:45:52;4.57;;;3.70;;
15624;SDS011;7912;51.376;6.126;2023-05-20T03:48:19;5.03;;;3.63;;
15624;SDS011;7912;51.376;6.126;2023-05-20T03:50:47;6.37;;;4.07;;
15624;SDS011;7912;51.376;6.126;2023-05-20T03:53:15;5.20;;;3.80;;
15624;SDS011;7912;51.376;6.126;2023-05-20T03:55:42;4.40;;;3.50;;
15624;SDS011;7912;51.376;6.126;2023-05-20T03:58:10;5.20;;;3.70;;
15624;SDS011;7912;51.376;6.126;2023-05-20T04:00:38;5.77;;;4.63;;
15624;SDS011;7912;51.376;6.126;2023-05-20T04:03:06;6.30;;;4.13;;
15624;SDS011;7912;51.376;6.126;2023-05-20T04:05:34;5.13;;;3.90;;
15624;SDS011;7912;51.376;6.126;2023-05-20T04:08:02;4.50;;;3.60;;
15624;SDS011;7912;51.376;6.126;2023-05-20T04:10:30;6.27;;;4.00;;
15624;SDS011;7912;51.376;6.126;2023-05-20T04:12:58;6.67;;;4.10;;
15624;SDS011;7912;51.376;6.126;2023-05-20T04:15:26;5.67;;;3.97;;
15624;SDS011;7912;51.376;6.126;2023-05-20T04:17:55;5.97;;;3.90;;
15624;SDS011;7912;51.376;6.126;2023-05-20T04:20:22;4.67;;;3.63;;
15624;SDS011;7912;51.376;6.126;2023-05-20T04:22:49;5.03;;;3.83;;
15624;SDS011;7912;51.376;6.126;2023-05-20T04:25:17;5.13;;;3.87;;
15624;SDS011;7912;51.376;6.126;2023-05-20T04:27:45;5.97;;;4.30;;
15624;SDS011;7912;51.376;6.126;2023-05-20T04:30:13;7.13;;;3.93;;
15624;SDS011;7912;51.376;6.126;2023-05-20T04:32:43;4.83;;;4.00;;
15624;SDS011;7912;51.376;6.126;2023-05-20T04:35:10;5.63;;;4.20;;
15624;SDS011;7912;51.376;6.126;2023-05-20T04:37:39;5.57;;;3.77;;
15624;SDS011;7912;51.376;6.126;2023-05-20T04:40:08;5.93;;;3.87;;
15624;SDS011;7912;51.376;6.126;2023-05-20T04:42:37;4.27;;;3.63;;
15624;SDS011;7912;51.376;6.126;2023-05-20T04:45:05;4.80;;;4.00;;
15624;SDS011;7912;51.376;6.126;2023-05-20T04:47:34;4.30;;;3.83;;
15624;SDS011;7912;51.376;6.126;2023-05-20T04:50:05;5.03;;;3.70;;
15624;SDS011;7912;51.376;6.126;2023-05-20T04:52:37;4.20;;;3.77;;
15624;SDS011;7912;51.376;6.126;2023-05-20T04:55:05;4.10;;;3.70;;
15624;SDS011;7912;51.376;6.126;2023-05-20T04:57:37;6.93;;;3.70;;
15624;SDS011;7912;51.376;6.126;2023-05-20T05:00:09;5.70;;;3.70;;
15624;SDS011;7912;51.376;6.126;2023-05-20T05:02:38;4.40;;;3.70;;
15624;SDS011;7912;51.376;6.126;2023-05-20T05:05:05;4.83;;;3.73;;
15624;SDS011;7912;51.376;6.126;2023-05-20T05:07:33;4.30;;;3.90;;
15624;SDS011;7912;51.376;6.126;2023-05-20T05:10:01;4.30;;;3.53;;
15624;SDS011;7912;51.376;6.126;2023-05-20T05:12:28;4.53;;;3.87;;
15624;SDS011;7912;51.376;6.126;2023-05-20T05:14:56;4.27;;;3.87;;
15624;SDS011;7912;51.376;6.126;2023-05-20T05:17:24;4.90;;;3.83;;
15624;SDS011;7912;51.376;6.126;2023-05-20T05:19:51;5.23;;;3.70;;
15624;SDS011;7912;51.376;6.126;2023-05-20T05:22:18;5.33;;;4.10;;
15624;SDS011;7912;51.376;6.126;2023-05-20T05:24:46;4.73;;;3.53;;
15624;SDS011;7912;51.376;6.126;2023-05-20T05:27:13;5.03;;;3.60;;
15624;SDS011;7912;51.376;6.126;2023-05-20T05:29:41;4.97;;;4.03;;
15624;SDS011;7912;51.376;6.126;2023-05-20T05:32:08;5.73;;;4.00;;
15624;SDS011;7912;51.376;6.126;2023-05-20T05:34:38;5.07;;;4.00;;
15624;SDS011;7912;51.376;6.126;2023-05-20T05:37:05;6.03;;;4.23;;
15624;SDS011;7912;51.376;6.126;2023-05-20T05:39:32;4.77;;;3.60;;
15624;SDS011;7912;51.376;6.126;2023-05-20T05:42:03;6.33;;;3.90;;
15624;SDS011;7912;51.376;6.126;2023-05-20T05:44:31;4.97;;;3.80;;
15624;SDS011;7912;51.376;6.126;2023-05-20T05:46:58;3.90;;;3.60;;
15624;SDS011;7912;51.376;6.126;2023-05-20T05:49:26;4.20;;;3.67;;
15624;SDS011;7912;51.376;6.126;2023-05-20T05:51:53;4.53;;;3.97;;
15624;SDS011;7912;51.376;6.126;2023-05-20T05:54:21;4.30;;;3.90;;
15624;SDS011;7912;51.376;6.126;2023-05-20T05:56:49;5.23;;;3.93;;
15624;SDS011;7912;51.376;6.126;2023-05-20T05:59:17;4.50;;;3.80;;
15624;SDS011;7912;51.376;6.126;2023-05-20T06:01:45;5.10;;;3.50;;
15624;SDS011;7912;51.376;6.126;2023-05-20T06:04:12;4.53;;;3.60;;
15624;SDS011;7912;51.376;6.126;2023-05-20T06:06:40;6.00;;;4.10;;
15624;SDS011;7912;51.376;6.126;2023-05-20T06:09:07;7.47;;;4.00;;
15624;SDS011;7912;51.376;6.126;2023-05-20T06:11:35;4.37;;;3.80;;
15624;SDS011;7912;51.376;6.126;2023-05-20T06:14:02;4.07;;;3.63;;
15624;SDS011;7912;51.376;6.126;2023-05-20T06:16:29;6.40;;;4.37;;
15624;SDS011;7912;51.376;6.126;2023-05-20T06:18:57;4.83;;;3.87;;
15624;SDS011;7912;51.376;6.126;2023-05-20T06:21:28;4.27;;;3.70;;
15624;SDS011;7912;51.376;6.126;2023-05-20T06:23:56;6.00;;;3.73;;
15624;SDS011;7912;51.376;6.126;2023-05-20T06:26:24;4.50;;;4.03;;
15624;SDS011;7912;51.376;6.126;2023-05-20T06:28:51;4.67;;;3.80;;
15624;SDS011;7912;51.376;6.126;2023-05-20T06:31:19;4.27;;;3.60;;
15624;SDS011;7912;51.376;6.126;2023-05-20T06:33:46;5.53;;;3.63;;
15624;SDS011;7912;51.376;6.126;2023-05-20T06:36:13;5.00;;;3.70;;
15624;SDS011;7912;51.376;6.126;2023-05-20T06:38:41;3.80;;;3.50;;
15624;SDS011;7912;51.376;6.126;2023-05-20T06:41:08;4.37;;;3.70;;
15624;SDS011;7912;51.376;6.126;2023-05-20T06:43:36;5.93;;;3.97;;
15624;SDS011;7912;51.376;6.126;2023-05-20T06:46:03;3.80;;;3.50;;
15624;SDS011;7912;51.376;6.126;2023-05-20T06:48:31;5.20;;;3.80;;
15624;SDS011;7912;51.376;6.126;2023-05-20T06:50:58;4.10;;;3.70;;
15624;SDS011;7912;51.376;6.126;2023-05-20T06:53:25;3.87;;;3.50;;
15624;SDS011;7912;51.376;6.126;2023-05-20T06:55:53;4.23;;;3.83;;
15624;SDS011;7912;51.376;6.126;2023-05-20T06:58:21;4.07;;;3.77;;
15624;SDS011;7912;51.376;6.126;2023-05-20T07:00:49;4.90;;;3.97;;
15624;SDS011;7912;51.376;6.126;2023-05-20T07:03:16;6.57;;;4.10;;
15624;SDS011;7912;51.376;6.126;2023-05-20T07:05:44;4.17;;;3.50;;
15624;SDS011;7912;51.376;6.126;2023-05-20T07:08:11;3.80;;;3.50;;
15624;SDS011;7912;51.376;6.126;2023-05-20T07:10:38;4.10;;;3.57;;
15624;SDS011;7912;51.376;6.126;2023-05-20T07:13:06;4.20;;;3.67;;
15624;SDS011;7912;51.376;6.126;2023-05-20T07:15:33;3.77;;;3.10;;
15624;SDS011;7912;51.376;6.126;2023-05-20T07:18:01;3.70;;;3.40;;
15624;SDS011;7912;51.376;6.126;2023-05-20T07:20:29;5.23;;;3.47;;
15624;SDS011;7912;51.376;6.126;2023-05-20T07:22:56;4.40;;;3.40;;
15624;SDS011;7912;51.376;6.126;2023-05-20T07:25:23;3.53;;;3.20;;
15624;SDS011;7912;51.376;6.126;2023-05-20T07:27:51;3.70;;;3.30;;
15624;SDS011;7912;51.376;6.126;2023-05-20T07:30:18;4.43;;;3.50;;
15624;SDS011;7912;51.376;6.126;2023-05-20T07:32:46;3.70;;;3.40;;
15624;SDS011;7912;51.376;6.126;2023-05-20T07:35:14;3.87;;;3.30;;
15624;SDS011;7912;51.376;6.126;2023-05-20T07:37:41;3.50;;;3.20;;
15624;SDS011;7912;51.376;6.126;2023-05-20T07:40:08;3.80;;;3.40;;
15624;SDS011;7912;51.376;6.126;2023-05-20T07:42:36;3.60;;;3.30;;
15624;SDS011;7912;51.376;6.126;2023-05-20T07:45:03;3.50;;;3.20;;
15624;SDS011;7912;51.376;6.126;2023-05-20T07:47:31;4.53;;;3.87;;
15624;SDS011;7912;51.376;6.126;2023-05-20T07:49:59;4.07;;;3.13;;
15624;SDS011;7912;51.376;6.126;2023-05-20T07:52:26;3.67;;;3.37;;
15624;SDS011;7912;51.376;6.126;2023-05-20T07:54:53;5.20;;;3.50;;
15624;SDS011;7912;51.376;6.126;2023-05-20T07:57:20;6.17;;;3.03;;
15624;SDS011;7912;51.376;6.126;2023-05-20T07:59:47;3.83;;;3.03;;
15624;SDS011;7912;51.376;6.126;2023-05-20T08:02:15;3.30;;;3.00;;
15624;SDS011;7912;51.376;6.126;2023-05-20T08:04:43;3.50;;;3.20;;
15624;SDS011;7912;51.376;6.126;2023-05-20T08:07:10;4.17;;;3.33;;
15624;SDS011;7912;51.376;6.126;2023-05-20T08:09:38;3.83;;;3.37;;
15624;SDS011;7912;51.376;6.126;2023-05-20T08:12:05;3.40;;;3.10;;
15624;SDS011;7912;51.376;6.126;2023-05-20T08:14:33;4.77;;;3.40;;
15624;SDS011;7912;51.376;6.126;2023-05-20T08:17:00;4.60;;;3.10;;
15624;SDS011;7912;51.376;6.126;2023-05-20T08:19:27;3.67;;;3.37;;
15624;SDS011;7912;51.376;6.126;2023-05-20T08:21:55;4.00;;;3.20;;
15624;SDS011;7912;51.376;6.126;2023-05-20T08:24:22;4.10;;;3.23;;
15624;SDS011;7912;51.376;6.126;2023-05-20T08:26:50;3.10;;;2.87;;
15624;SDS011;7912;51.376;6.126;2023-05-20T08:29:17;3.07;;;2.77;;
15624;SDS011;7912;51.376;6.126;2023-05-20T08:31:44;3.27;;;2.93;;
15624;SDS011;7912;51.376;6.126;2023-05-20T08:34:12;5.23;;;3.10;;
15624;SDS011;7912;51.376;6.126;2023-05-20T08:36:39;4.10;;;3.10;;
15624;SDS011;7912;51.376;6.126;2023-05-20T08:39:07;3.80;;;3.07;;
15624;SDS011;7912;51.376;6.126;2023-05-20T08:41:35;4.57;;;3.00;;
15624;SDS011;7912;51.376;6.126;2023-05-20T08:44:04;3.70;;;3.30;;
15624;SDS011;7912;51.376;6.126;2023-05-20T08:46:35;3.83;;;3.33;;
15624;SDS011;7912;51.376;6.126;2023-05-20T08:49:04;4.00;;;3.57;;
15624;SDS011;7912;51.376;6.126;2023-05-20T08:51:33;3.80;;;3.40;;
15624;SDS011;7912;51.376;6.126;2023-05-20T08:54:03;3.70;;;3.40;;
15624;SDS011;7912;51.376;6.126;2023-05-20T08:56:32;4.07;;;3.40;;
15624;SDS011;7912;51.376;6.126;2023-05-20T08:58:59;4.60;;;3.30;;
15624;SDS011;7912;51.376;6.126;2023-05-20T09:01:26;2.93;;;2.73;;
15624;SDS011;7912;51.376;6.126;2023-05-20T09:03:54;3.63;;;3.33;;
15624;SDS011;7912;51.376;6.126;2023-05-20T09:06:21;4.80;;;3.07;;
15624;SDS011;7912;51.376;6.126;2023-05-20T09:08:49;4.07;;;3.10;;
15624;SDS011;7912;51.376;6.126;2023-05-20T09:11:18;3.90;;;3.50;;
15624;SDS011;7912;51.376;6.126;2023-05-20T09:13:48;4.00;;;2.90;;
15624;SDS011;7912;51.376;6.126;2023-05-20T09:16:16;3.17;;;2.90;;
15624;SDS011;7912;51.376;6.126;2023-05-20T09:18:45;3.53;;;3.00;;
15624;SDS011;7912;51.376;6.126;2023-05-20T09:21:12;3.53;;;3.00;;
15624;SDS011;7912;51.376;6.126;2023-05-20T09:23:39;4.73;;;2.90;;
15624;SDS011;7912;51.376;6.126;2023-05-20T09:26:16;4.13;;;3.63;;
15624;SDS011;7912;51.376;6.126;2023-05-20T09:28:44;3.93;;;3.57;;
15624;SDS011;7912;51.376;6.126;2023-05-20T09:31:15;4.23;;;3.40;;
15624;SDS011;7912;51.376;6.126;2023-05-20T09:33:42;4.00;;;3.60;;
15624;SDS011;7912;51.376;6.126;2023-05-20T09:36:10;4.20;;;3.90;;
15624;SDS011;7912;51.376;6.126;2023-05-20T09:38:41;4.13;;;3.40;;
15624;SDS011;7912;51.376;6.126;2023-05-20T09:41:11;4.90;;;3.90;;
15624;SDS011;7912;51.376;6.126;2023-05-20T09:43:40;4.53;;;3.73;;
15624;SDS011;7912;51.376;6.126;2023-05-20T09:46:08;3.87;;;3.50;;
15624;SDS011;7912;51.376;6.126;2023-05-20T09:48:36;4.43;;;4.03;;
15624;SDS011;7912;51.376;6.126;2023-05-20T09:51:04;5.37;;;3.63;;
15624;SDS011;7912;51.376;6.126;2023-05-20T09:53:33;4.43;;;4.03;;
15624;SDS011;7912;51.376;6.126;2023-05-20T09:56:01;5.53;;;4.53;;
15624;SDS011;7912;51.376;6.126;2023-05-20T09:58:29;4.20;;;3.83;;
15624;SDS011;7912;51.376;6.126;2023-05-20T10:00:59;4.87;;;4.37;;
15624;SDS011;7912;51.376;6.126;2023-05-20T10:03:27;5.67;;;4.20;;
15624;SDS011;7912;51.376;6.126;2023-05-20T10:20:23;7.03;;;5.13;;
15624;SDS011;7912;51.376;6.126;2023-05-20T10:22:55;6.23;;;5.07;;
15624;SDS011;7912;51.376;6.126;2023-05-20T10:25:24;5.87;;;5.27;;
15624;SDS011;7912;51.376;6.126;2023-05-20T10:28:09;5.43;;;4.93;;
15624;SDS011;7912;51.376;6.126;2023-05-20T10:30:36;5.50;;;5.00;;
15624;SDS011;7912;51.376;6.126;2023-05-20T10:33:17;4.63;;;4.23;;
15624;SDS011;7912;51.376;6.126;2023-05-20T10:35:51;5.07;;;4.67;;
15624;SDS011;7912;51.376;6.126;2023-05-20T10:38:20;4.97;;;4.47;;
15624;SDS011;7912;51.376;6.126;2023-05-20T10:40:47;5.43;;;4.83;;
15624;SDS011;7912;51.376;6.126;2023-05-20T10:43:15;6.63;;;4.53;;
15624;SDS011;7912;51.376;6.126;2023-05-20T10:45:54;5.20;;;4.60;;
15624;SDS011;7912;51.376;6.126;2023-05-20T10:48:24;7.00;;;4.90;;
15624;SDS011;7912;51.376;6.126;2023-05-20T10:50:58;5.20;;;4.70;;
15624;SDS011;7912;51.376;6.126;2023-05-20T10:53:40;6.47;;;4.77;;
15624;SDS011;7912;51.376;6.126;2023-05-20T10:56:18;6.80;;;4.67;;
15624;SDS011;7912;51.376;6.126;2023-05-20T10:58:51;5.40;;;4.90;;
15624;SDS011;7912;51.376;6.126;2023-05-20T11:01:24;5.67;;;5.17;;
15624;SDS011;7912;51.376;6.126;2023-05-20T11:03:56;5.03;;;4.27;;
15624;SDS011;7912;51.376;6.126;2023-05-20T11:06:26;5.83;;;4.37;;
15624;SDS011;7912;51.376;6.126;2023-05-20T11:08:54;5.00;;;4.53;;
15624;SDS011;7912;51.376;6.126;2023-05-20T11:11:30;5.20;;;4.70;;
15624;SDS011;7912;51.376;6.126;2023-05-20T11:13:58;5.33;;;4.83;;
15624;SDS011;7912;51.376;6.126;2023-05-20T11:16:25;5.53;;;5.03;;
15624;SDS011;7912;51.376;6.126;2023-05-20T11:18:53;5.67;;;5.17;;
15624;SDS011;7912;51.376;6.126;2023-05-20T11:21:20;5.37;;;4.87;;
15624;SDS011;7912;51.376;6.126;2023-05-20T11:23:50;7.63;;;4.90;;
15624;SDS011;7912;51.376;6.126;2023-05-20T11:26:17;6.07;;;5.47;;
15624;SDS011;7912;51.376;6.126;2023-05-20T11:28:46;6.00;;;5.37;;
15624;SDS011;7912;51.376;6.126;2023-05-20T11:31:14;5.20;;;4.80;;
15624;SDS011;7912;51.376;6.126;2023-05-20T11:33:42;5.70;;;5.10;;
15624;SDS011;7912;51.376;6.126;2023-05-20T11:36:10;5.57;;;5.10;;
15624;SDS011;7912;51.376;6.126;2023-05-20T11:38:52;5.73;;;5.23;;
15624;SDS011;7912;51.376;6.126;2023-05-20T11:41:23;6.27;;;5.67;;
15624;SDS011;7912;51.376;6.126;2023-05-20T11:43:58;6.17;;;4.97;;
15624;SDS011;7912;51.376;6.126;2023-05-20T11:46:26;5.43;;;4.90;;
15624;SDS011;7912;51.376;6.126;2023-05-20T11:48:54;5.57;;;5.07;;
15624;SDS011;7912;51.376;6.126;2023-05-20T11:51:23;5.73;;;5.20;;
15624;SDS011;7912;51.376;6.126;2023-05-20T11:53:58;6.47;;;4.90;;
15624;SDS011;7912;51.376;6.126;2023-05-20T11:56:28;5.20;;;4.70;;
15624;SDS011;7912;51.376;6.126;2023-05-20T11:59:07;6.90;;;5.10;;
15624;SDS011;7912;51.376;6.126;2023-05-20T12:01:38;7.07;;;5.00;;
15624;SDS011;7912;51.376;6.126;2023-05-20T12:04:09;6.37;;;4.73;;
15624;SDS011;7912;51.376;6.126;2023-05-20T12:06:41;5.53;;;4.70;;
15624;SDS011;7912;51.376;6.126;2023-05-20T12:09:09;5.80;;;4.67;;
15624;SDS011;7912;51.376;6.126;2023-05-20T12:11:37;5.50;;;4.60;;
15624;SDS011;7912;51.376;6.126;2023-05-20T12:14:07;4.90;;;4.50;;
15624;SDS011;7912;51.376;6.126;2023-05-20T12:16:35;6.30;;;4.73;;
15624;SDS011;7912;51.376;6.126;2023-05-20T12:19:03;4.93;;;4.50;;
15624;SDS011;7912;51.376;6.126;2023-05-20T12:21:31;4.40;;;4.00;;
15624;SDS011;7912;51.376;6.126;2023-05-20T12:23:58;5.20;;;4.67;;
15624;SDS011;7912;51.376;6.126;2023-05-20T12:26:27;5.47;;;4.50;;
15624;SDS011;7912;51.376;6.126;2023-05-20T12:28:55;5.40;;;4.83;;
15624;SDS011;7912;51.376;6.126;2023-05-20T12:31:23;4.93;;;4.53;;
15624;SDS011;7912;51.376;6.126;2023-05-20T12:33:51;5.40;;;4.90;;
15624;SDS011;7912;51.376;6.126;2023-05-20T12:36:18;5.60;;;5.00;;
15624;SDS011;7912;51.376;6.126;2023-05-20T12:38:46;5.00;;;4.50;;
15624;SDS011;7912;51.376;6.126;2023-05-20T12:41:13;4.93;;;4.47;;
15624;SDS011;7912;51.376;6.126;2023-05-20T12:43:41;4.93;;;4.53;;
15624;SDS011;7912;51.376;6.126;2023-05-20T12:46:08;4.90;;;4.50;;
15624;SDS011;7912;51.376;6.126;2023-05-20T12:48:35;5.30;;;4.90;;
15624;SDS011;7912;51.376;6.126;2023-05-20T12:51:03;5.10;;;4.60;;
15624;SDS011;7912;51.376;6.126;2023-05-20T12:53:31;5.07;;;4.57;;
15624;SDS011;7912;51.376;6.126;2023-05-20T12:55:58;5.03;;;4.50;;
15624;SDS011;7912;51.376;6.126;2023-05-20T12:58:26;7.13;;;4.57;;
15624;SDS011;7912;51.376;6.126;2023-05-20T13:00:53;5.80;;;3.80;;
15624;SDS011;7912;51.376;6.126;2023-05-20T13:03:21;4.70;;;4.30;;
15624;SDS011;7912;51.376;6.126;2023-05-20T13:05:48;4.50;;;4.10;;
15624;SDS011;7912;51.376;6.126;2023-05-20T13:08:15;4.60;;;4.20;;
15624;SDS011;7912;51.376;6.126;2023-05-20T13:10:43;4.53;;;4.23;;
15624;SDS011;7912;51.376;6.126;2023-05-20T13:13:10;4.47;;;4.07;;
15624;SDS011;7912;51.376;6.126;2023-05-20T13:15:39;5.37;;;4.63;;
15624;SDS011;7912;51.376;6.126;2023-05-20T13:18:06;4.80;;;4.30;;
15624;SDS011;7912;51.376;6.126;2023-05-20T13:20:35;5.13;;;4.63;;
15624;SDS011;7912;51.376;6.126;2023-05-20T13:23:03;4.80;;;4.40;;
15624;SDS011;7912;51.376;6.126;2023-05-20T13:25:30;4.87;;;4.43;;
15624;SDS011;7912;51.376;6.126;2023-05-20T13:27:57;4.73;;;4.33;;
15624;SDS011;7912;51.376;6.126;2023-05-20T13:30:24;4.50;;;4.10;;
15624;SDS011;7912;51.376;6.126;2023-05-20T13:32:53;4.47;;;4.00;;
15624;SDS011;7912;51.376;6.126;2023-05-20T13:35:21;5.20;;;4.10;;
15624;SDS011;7912;51.376;6.126;2023-05-20T13:37:48;4.27;;;3.87;;
15624;SDS011;7912;51.376;6.126;2023-05-20T13:40:15;5.10;;;4.50;;
15624;SDS011;7912;51.376;6.126;2023-05-20T13:42:43;4.67;;;4.27;;
15624;SDS011;7912;51.376;6.126;2023-05-20T13:45:10;4.13;;;3.73;;
15624;SDS011;7912;51.376;6.126;2023-05-20T13:47:37;4.30;;;3.90;;
15624;SDS011;7912;51.376;6.126;2023-05-20T13:50:05;4.40;;;4.00;;
15624;SDS011;7912;51.376;6.126;2023-05-20T13:52:33;4.40;;;4.00;;
15624;SDS011;7912;51.376;6.126;2023-05-20T13:55:00;4.33;;;4.03;;
15624;SDS011;7912;51.376;6.126;2023-05-20T13:57:27;4.03;;;3.67;;
15624;SDS011;7912;51.376;6.126;2023-05-20T13:59:54;4.27;;;3.57;;
15624;SDS011;7912;51.376;6.126;2023-05-20T14:02:22;3.97;;;3.67;;
15624;SDS011;7912;51.376;6.126;2023-05-20T14:04:49;3.90;;;3.60;;
15624;SDS011;7912;51.376;6.126;2023-05-20T14:07:17;3.80;;;3.30;;
15624;SDS011;7912;51.376;6.126;2023-05-20T14:09:44;3.53;;;3.23;;
15624;SDS011;7912;51.376;6.126;2023-05-20T14:12:11;4.10;;;3.80;;
15624;SDS011;7912;51.376;6.126;2023-05-20T14:14:38;4.80;;;4.40;;
15624;SDS011;7912;51.376;6.126;2023-05-20T14:17:06;4.13;;;3.83;;
15624;SDS011;7912;51.376;6.126;2023-05-20T14:19:33;3.77;;;3.37;;
15624;SDS011;7912;51.376;6.126;2023-05-20T14:22:00;3.47;;;3.20;;
15624;SDS011;7912;51.376;6.126;2023-05-20T14:24:28;3.80;;;3.50;;
15624;SDS011;7912;51.376;6.126;2023-05-20T14:26:55;3.60;;;3.30;;
15624;SDS011;7912;51.376;6.126;2023-05-20T14:29:23;4.73;;;3.30;;
15624;SDS011;7912;51.376;6.126;2023-05-20T14:31:50;4.20;;;3.83;;
15624;SDS011;7912;51.376;6.126;2023-05-20T14:34:18;4.60;;;4.20;;
15624;SDS011;7912;51.376;6.126;2023-05-20T14:36:46;3.77;;;3.50;;
15624;SDS011;7912;51.376;6.126;2023-05-20T14:39:13;3.57;;;3.17;;
15624;SDS011;7912;51.376;6.126;2023-05-20T14:41:40;3.00;;;2.70;;
15624;SDS011;7912;51.376;6.126;2023-05-20T14:44:08;3.30;;;2.73;;
15624;SDS011;7912;51.376;6.126;2023-05-20T14:46:35;3.00;;;2.80;;
15624;SDS011;7912;51.376;6.126;2023-05-20T14:49:03;3.10;;;2.90;;
15624;SDS011;7912;51.376;6.126;2023-05-20T14:51:30;3.77;;;2.50;;
15624;SDS011;7912;51.376;6.126;2023-05-20T14:53:57;3.40;;;2.80;;
15624;SDS011;7912;51.376;6.126;2023-05-20T14:56:24;3.00;;;2.80;;
15624;SDS011;7912;51.376;6.126;2023-05-20T14:58:52;2.67;;;2.53;;
15624;SDS011;7912;51.376;6.126;2023-05-20T15:01:19;3.10;;;2.77;;
15624;SDS011;7912;51.376;6.126;2023-05-20T15:03:46;3.17;;;2.87;;
15624;SDS011;7912;51.376;6.126;2023-05-20T15:06:14;3.90;;;3.00;;
15624;SDS011;7912;51.376;6.126;2023-05-20T15:08:41;3.73;;;3.13;;
15624;SDS011;7912;51.376;6.126;2023-05-20T15:11:09;2.80;;;2.60;;
15624;SDS011;7912;51.376;6.126;2023-05-20T15:13:36;2.80;;;2.40;;
15624;SDS011;7912;51.376;6.126;2023-05-20T15:16:05;3.10;;;2.60;;
15624;SDS011;7912;51.376;6.126;2023-05-20T15:18:33;2.90;;;2.67;;
15624;SDS011;7912;51.376;6.126;2023-05-20T15:21:00;3.23;;;2.90;;
15624;SDS011;7912;51.376;6.126;2023-05-20T15:23:27;3.13;;;2.80;;
15624;SDS011;7912;51.376;6.126;2023-05-20T15:25:55;2.80;;;2.60;;
15624;SDS011;7912;51.376;6.126;2023-05-20T15:28:25;2.60;;;2.40;;
15624;SDS011;7912;51.376;6.126;2023-05-20T15:30:55;2.60;;;2.17;;
15624;SDS011;7912;51.376;6.126;2023-05-20T15:33:22;2.70;;;2.50;;